createdAt,value
2022-09-14T00:01:43.446Z,95553.31
2022-09-14T00:04:15.432Z,95557.06
2022-09-14T00:06:41.831Z,95555.50
2022-09-14T00:09:10.280Z,95553.69
2022-09-14T00:11:36.998Z,95547.00
2022-09-14T00:14:04.743Z,95548.19
2022-09-14T00:16:34.096Z,95549.06
2022-09-14T00:19:05.888Z,95545.63
2022-09-14T00:21:34.082Z,95543.72
2022-09-14T00:23:59.948Z,95540.75
2022-09-14T00:26:25.898Z,95533.66
2022-09-14T00:28:57.201Z,95521.13
2022-09-14T00:31:24.356Z,95527.94
2022-09-14T00:33:51.661Z,95523.28
2022-09-14T00:36:24.166Z,95524.50
2022-09-14T00:38:50.910Z,95520.81
2022-09-14T00:41:20.375Z,95521.31
2022-09-14T00:44:26.497Z,95518.47
2022-09-14T00:46:56.282Z,95518.94
2022-09-14T00:49:29.286Z,95513.31
2022-09-14T00:52:08.119Z,95517.94
2022-09-14T00:54:38.498Z,95511.66
2022-09-14T00:57:04.438Z,95512.44
2022-09-14T00:59:34.698Z,95506.00
2022-09-14T01:02:01.066Z,95502.84
2022-09-14T01:04:26.824Z,95504.44
2022-09-14T01:07:05.239Z,95504.22
2022-09-14T01:09:54.039Z,95502.81
2022-09-14T01:12:57.002Z,95496.63
2022-09-14T01:15:48.097Z,95495.69
2022-09-14T01:18:22.184Z,95502.88
2022-09-14T01:20:57.622Z,95498.34
2022-09-14T01:23:58.748Z,95496.22
2022-09-14T01:26:57.922Z,95491.66
2022-09-14T01:29:31.463Z,95500.25
2022-09-14T01:32:17.423Z,95490.75
2022-09-14T01:35:19.167Z,95485.91
2022-09-14T01:37:51.137Z,95480.47
2022-09-14T01:40:29.392Z,95474.84
2022-09-14T01:43:15.513Z,95470.97
2022-09-14T01:45:47.782Z,95473.00
2022-09-14T01:48:19.095Z,95457.91
2022-09-14T01:50:53.873Z,95454.59
2022-09-14T01:53:33.975Z,95456.53
2022-09-14T01:56:19.629Z,95451.56
2022-09-14T01:59:13.958Z,95453.16
2022-09-14T02:01:50.178Z,95453.03
2022-09-14T02:04:25.521Z,95450.78
2022-09-14T02:06:51.348Z,95454.59
2022-09-14T02:09:22.053Z,95447.19
2022-09-14T02:11:48.334Z,95452.16
2022-09-14T02:14:14.200Z,95448.06
2022-09-14T02:16:44.636Z,95449.16
2022-09-14T02:19:10.481Z,95433.81
2022-09-14T02:21:37.676Z,95436.84
2022-09-14T02:24:03.856Z,95431.81
2022-09-14T02:26:29.767Z,95433.41
2022-09-14T02:28:56.611Z,95433.81
2022-09-14T02:31:54.380Z,95428.59
2022-09-14T02:34:41.746Z,95431.88
2022-09-14T02:37:12.957Z,95429.38
2022-09-14T02:39:57.531Z,95430.94
2022-09-14T02:42:29.211Z,95428.13
2022-09-14T02:45:37.809Z,95427.88
2022-09-14T02:48:05.909Z,95426.13
2022-09-14T02:50:53.859Z,95420.09
2022-09-14T02:53:38.174Z,95416.34
2022-09-14T02:56:07.842Z,95417.38
2022-09-14T02:58:35.953Z,95408.31
2022-09-14T03:01:03.639Z,95404.06
2022-09-14T03:03:32.305Z,95415.78
2022-09-14T03:06:01.245Z,95407.28
2022-09-14T03:08:27.752Z,95400.97
2022-09-14T03:10:54.234Z,95400.97
2022-09-14T03:13:20.200Z,95400.59
2022-09-14T03:15:46.211Z,95401.13
2022-09-14T03:18:14.618Z,95401.53
2022-09-14T03:20:41.003Z,95391.13
2022-09-14T03:23:08.399Z,95396.38
2022-09-14T03:25:39.151Z,95387.75
2022-09-14T03:28:05.829Z,95388.00
2022-09-14T03:30:32.435Z,95388.59
2022-09-14T03:32:58.755Z,95389.75
2022-09-14T03:35:25.178Z,95384.22
2022-09-14T03:37:51.118Z,95387.75
2022-09-14T03:40:21.595Z,95383.47
2022-09-14T03:42:49.442Z,95377.13
2022-09-14T03:45:16.639Z,95381.28
2022-09-14T03:47:43.302Z,95378.50
2022-09-14T03:50:11.014Z,95372.31
2022-09-14T03:52:38.060Z,95373.31
2022-09-14T03:55:05.676Z,95369.53
2022-09-14T03:57:32.108Z,95373.47
2022-09-14T03:59:58.329Z,95372.91
2022-09-14T04:02:24.581Z,95365.41
2022-09-14T04:04:50.444Z,95370.53
2022-09-14T04:07:16.465Z,95362.69
2022-09-14T04:09:44.272Z,95358.47
2022-09-14T04:12:10.119Z,95356.16
2022-09-14T04:14:36.163Z,95353.16
2022-09-14T04:17:02.563Z,95358.41
2022-09-14T04:19:28.320Z,95358.03
2022-09-14T04:21:54.060Z,95354.97
2022-09-14T04:24:20.133Z,95356.03
2022-09-14T04:26:47.084Z,95357.63
2022-09-14T04:29:13.689Z,95354.59
2022-09-14T04:31:41.397Z,95356.69
2022-09-14T04:34:07.283Z,95357.78
2022-09-14T04:36:33.083Z,95356.03
2022-09-14T04:39:00.893Z,95358.63
2022-09-14T04:41:27.888Z,95357.91
2022-09-14T04:43:55.442Z,95353.13
2022-09-14T04:46:29.824Z,95352.16
2022-09-14T04:48:55.694Z,95362.44
2022-09-14T04:51:24.860Z,95349.09
2022-09-14T04:53:53.228Z,95349.16
2022-09-14T04:56:23.579Z,95359.44
2022-09-14T04:58:52.349Z,95349.38
2022-09-14T05:01:23.950Z,95348.34
2022-09-14T05:03:50.940Z,95348.59
2022-09-14T05:06:19.093Z,95343.28
2022-09-14T05:08:46.290Z,95351.88
2022-09-14T05:11:14.740Z,95347.50
2022-09-14T05:13:42.084Z,95356.03
2022-09-14T05:16:18.679Z,95348.59
2022-09-14T05:18:45.247Z,95358.56
2022-09-14T05:21:13.949Z,95356.69
2022-09-14T05:23:39.851Z,95344.84
2022-09-14T05:26:06.299Z,95345.50
2022-09-14T05:28:33.333Z,95351.25
2022-09-14T05:31:02.914Z,95341.97
2022-09-14T05:33:28.783Z,95352.09
2022-09-14T05:36:00.254Z,95342.78
2022-09-14T05:38:28.529Z,95343.41
2022-09-14T05:40:54.788Z,95343.47
2022-09-14T05:43:21.911Z,95335.78
2022-09-14T05:45:48.576Z,95337.53
2022-09-14T05:48:14.647Z,95339.63
2022-09-14T05:50:40.377Z,95340.66
2022-09-14T05:53:06.168Z,95338.19
2022-09-14T05:55:32.039Z,95333.78
2022-09-14T05:57:57.809Z,95334.44
2022-09-14T06:00:23.775Z,95337.53
2022-09-14T06:02:51.599Z,95344.41
2022-09-14T06:05:18.230Z,95336.38
2022-09-14T06:07:44.745Z,95334.81
2022-09-14T06:10:11.280Z,95336.72
2022-09-14T06:12:37.421Z,95341.75
2022-09-14T06:15:03.524Z,95337.53
2022-09-14T06:17:30.476Z,95334.66
2022-09-14T06:19:59.097Z,95341.47
2022-09-14T06:22:26.829Z,95336.78
2022-09-14T06:24:52.930Z,95337.88
2022-09-14T06:27:19.081Z,95332.94
2022-09-14T06:29:44.872Z,95330.91
2022-09-14T06:32:10.652Z,95332.34
2022-09-14T06:34:36.442Z,95336.72
2022-09-14T06:37:02.234Z,95330.28
2022-09-14T06:39:27.956Z,95329.25
2022-09-14T06:41:53.913Z,95332.16
2022-09-14T06:44:19.681Z,95331.84
2022-09-14T06:46:47.674Z,95334.78
2022-09-14T06:49:19.927Z,95333.56
2022-09-14T06:51:48.801Z,95340.03
2022-09-14T06:54:15.424Z,95335.63
2022-09-14T06:56:42.581Z,95342.50
2022-09-14T06:59:10.386Z,95338.63
2022-09-14T07:01:36.702Z,95340.41
2022-09-14T07:04:03.659Z,95345.94
2022-09-14T07:06:32.875Z,95340.97
2022-09-14T07:09:02.171Z,95348.84
2022-09-14T07:11:28.761Z,95346.59
2022-09-14T07:13:58.139Z,95347.81
2022-09-14T07:16:28.197Z,95348.56
2022-09-14T07:18:55.599Z,95348.72
2022-09-14T07:21:22.526Z,95349.50
2022-09-14T07:23:49.082Z,95355.00
2022-09-14T07:26:21.299Z,95358.63
2022-09-14T07:28:50.788Z,95349.75
2022-09-14T07:31:23.953Z,95358.00
2022-09-14T07:33:54.700Z,95347.59
2022-09-14T07:36:21.654Z,95355.78
2022-09-14T07:38:52.489Z,95353.69
2022-09-14T07:41:24.135Z,95351.56
2022-09-14T07:43:54.772Z,95358.66
2022-09-14T07:46:21.031Z,95350.94
2022-09-14T07:48:48.363Z,95351.44
2022-09-14T07:51:14.697Z,95356.75
2022-09-14T07:53:42.288Z,95353.88
2022-09-14T07:56:10.110Z,95350.81
2022-09-14T07:58:36.177Z,95347.75
2022-09-14T08:01:05.209Z,95351.72
2022-09-14T08:03:31.081Z,95346.63
2022-09-14T08:06:01.261Z,95351.38
2022-09-14T08:08:31.706Z,95352.72
2022-09-14T08:11:28.351Z,95343.47
2022-09-14T08:13:57.053Z,95342.34
2022-09-14T08:16:24.235Z,95336.97
2022-09-14T08:18:58.440Z,95336.28
2022-09-14T08:21:25.593Z,95334.88
2022-09-14T08:23:51.982Z,95331.03
2022-09-14T08:26:23.070Z,95327.59
2022-09-14T08:28:50.950Z,95330.50
2022-09-14T08:31:20.210Z,95330.31
2022-09-14T08:34:00.328Z,95327.38
2022-09-14T08:36:31.953Z,95327.41
2022-09-14T08:38:58.276Z,95325.56
2022-09-14T08:41:29.313Z,95328.06
2022-09-14T08:44:30.524Z,95321.56
2022-09-14T08:47:06.327Z,95326.13
2022-09-14T08:49:54.307Z,95325.13
2022-09-14T08:52:35.301Z,95328.44
2022-09-14T08:55:14.998Z,95336.97
2022-09-14T08:57:50.958Z,95324.72
2022-09-14T09:00:22.557Z,95330.19
2022-09-14T09:03:03.487Z,95321.94
2022-09-14T09:05:29.329Z,95329.47
2022-09-14T09:08:19.690Z,95330.03
2022-09-14T09:10:47.332Z,95334.38
2022-09-14T09:13:19.828Z,95326.88
2022-09-14T09:15:54.585Z,95328.97
2022-09-14T09:18:35.297Z,95327.66
2022-09-14T09:21:10.112Z,95333.66
2022-09-14T09:23:36.497Z,95332.63
2022-09-14T09:26:14.017Z,95331.56
2022-09-14T09:28:49.164Z,95326.47
2022-09-14T09:31:17.616Z,95335.31
2022-09-14T09:33:49.008Z,95329.53
2022-09-14T09:36:15.452Z,95333.16
2022-09-14T09:38:41.750Z,95334.94
2022-09-14T09:41:23.519Z,95337.03
2022-09-14T09:44:02.516Z,95332.78
2022-09-14T09:46:34.421Z,95327.47
2022-09-14T09:49:15.228Z,95329.78
2022-09-14T09:51:41.584Z,95319.41
2022-09-14T09:54:29.260Z,95317.16
2022-09-14T09:57:01.818Z,95323.16
2022-09-14T09:59:41.548Z,95324.19
2022-09-14T10:02:30.550Z,95316.75
2022-09-14T10:05:03.935Z,95323.94
2022-09-14T10:07:32.836Z,95324.38
2022-09-14T10:10:01.532Z,95331.22
2022-09-14T10:12:28.506Z,95321.38
2022-09-14T10:15:28.132Z,95327.81
2022-09-14T10:17:56.565Z,95322.06
2022-09-14T10:20:24.775Z,95321.56
2022-09-14T10:22:50.896Z,95318.88
2022-09-14T10:25:17.177Z,95315.56
2022-09-14T10:27:55.362Z,95318.56
2022-09-14T10:30:47.180Z,95315.56
2022-09-14T10:33:15.075Z,95314.69
2022-09-14T10:35:55.944Z,95314.44
2022-09-14T10:38:31.976Z,95317.88
2022-09-14T10:41:26.409Z,95313.84
2022-09-14T10:44:05.513Z,95310.91
2022-09-14T10:46:47.839Z,95298.75
2022-09-14T10:49:38.513Z,95291.09
2022-09-14T10:52:13.328Z,95300.34
2022-09-14T10:54:59.304Z,95294.06
2022-09-14T10:57:37.532Z,95300.59
2022-09-14T11:00:12.877Z,95284.31
2022-09-14T11:02:57.619Z,95287.13
2022-09-14T11:05:26.398Z,95275.94
2022-09-14T11:07:52.168Z,95275.50
2022-09-14T11:10:57.121Z,95273.06
2022-09-14T11:14:09.161Z,95283.94
2022-09-14T11:16:46.974Z,95284.13
2022-09-14T11:19:23.647Z,95282.94
2022-09-14T11:22:03.522Z,95278.13
2022-09-14T11:24:52.703Z,95284.44
2022-09-14T11:27:38.954Z,95285.34
2022-09-14T11:30:09.628Z,95290.16
2022-09-14T11:32:50.200Z,95294.06
2022-09-14T11:35:23.428Z,95295.97
2022-09-14T11:38:12.076Z,95297.97
2022-09-14T11:40:55.568Z,95295.28
2022-09-14T11:43:28.976Z,95299.94
2022-09-14T11:46:05.980Z,95289.44
2022-09-14T11:48:54.243Z,95295.66
2022-09-14T11:51:31.714Z,95289.97
2022-09-14T11:53:57.704Z,95291.97
2022-09-14T11:56:28.445Z,95291.03
2022-09-14T11:58:57.347Z,95282.78
2022-09-14T12:01:37.084Z,95288.63
2022-09-14T12:04:13.945Z,95284.66
2022-09-14T12:06:39.834Z,95287.13
2022-09-14T12:09:20.741Z,95283.66
2022-09-14T12:11:52.468Z,95282.66
2022-09-14T12:14:26.613Z,95278.69
2022-09-14T12:17:40.283Z,95266.72
2022-09-14T12:20:43.330Z,95261.13
2022-09-14T12:23:19.888Z,95262.81
2022-09-14T12:26:06.064Z,95255.97
2022-09-14T12:28:34.571Z,95261.19
2022-09-14T12:31:01.908Z,95261.34
2022-09-14T12:33:30.681Z,95259.66
2022-09-14T12:36:11.176Z,95256.81
2022-09-14T12:38:37.247Z,95262.38
2022-09-14T12:41:45.990Z,95254.47
2022-09-14T12:44:34.339Z,95259.22
2022-09-14T12:47:24.834Z,95249.28
2022-09-14T12:50:20.088Z,95251.94
2022-09-14T12:52:51.845Z,95248.97
2022-09-14T12:55:17.546Z,95248.53
2022-09-14T12:57:51.829Z,95234.75
2022-09-14T13:00:19.379Z,95233.00
2022-09-14T13:03:29.541Z,95226.66
2022-09-14T13:05:55.748Z,95217.56
2022-09-14T13:08:23.920Z,95207.47
2022-09-14T13:10:51.304Z,95211.94
2022-09-14T13:13:21.435Z,95219.66
2022-09-14T13:15:57.251Z,95219.81
2022-09-14T13:18:23.020Z,95219.91
2022-09-14T13:20:50.661Z,95221.47
2022-09-14T13:23:20.636Z,95213.00
2022-09-14T13:25:46.665Z,95215.56
2022-09-14T13:28:15.795Z,95199.19
2022-09-14T13:30:42.367Z,95195.00
2022-09-14T13:33:17.893Z,95199.16
2022-09-14T13:35:54.239Z,95193.88
2022-09-14T13:38:19.945Z,95198.91
2022-09-14T13:40:48.956Z,95194.66
2022-09-14T13:43:19.316Z,95189.50
2022-09-14T13:45:46.028Z,95193.22
2022-09-14T13:48:14.426Z,95204.00
2022-09-14T13:50:44.819Z,95207.25
2022-09-14T13:53:58.502Z,95209.75
2022-09-14T13:56:30.400Z,95214.56
2022-09-14T13:59:09.760Z,95227.97
2022-09-14T14:01:37.373Z,95230.38
2022-09-14T14:04:03.798Z,95237.56
2022-09-14T14:06:34.801Z,95235.63
2022-09-14T14:09:09.762Z,95224.84
2022-09-14T14:11:40.935Z,95226.25
2022-09-14T14:14:15.566Z,95230.22
2022-09-14T14:17:01.901Z,95223.69
2022-09-14T14:19:30.296Z,95218.94
2022-09-14T14:22:14.300Z,95216.88
2022-09-14T14:25:11.680Z,95202.72
2022-09-14T14:27:36.858Z,95197.91
2022-09-14T14:30:21.171Z,95191.84
2022-09-14T14:32:51.310Z,95191.53
2022-09-14T14:35:21.555Z,95194.97
2022-09-14T14:37:48.145Z,95196.06
2022-09-14T14:40:15.274Z,95197.34
2022-09-14T14:42:42.001Z,95194.25
2022-09-14T14:45:20.634Z,95195.50
2022-09-14T14:47:48.238Z,95200.66
2022-09-14T14:50:22.766Z,95192.47
2022-09-14T14:52:50.743Z,95194.84
2022-09-14T14:55:17.336Z,95195.34
2022-09-14T14:57:43.101Z,95186.81
2022-09-14T15:00:18.402Z,95171.31
2022-09-14T15:02:44.390Z,95170.16
2022-09-14T15:05:11.664Z,95159.19
2022-09-14T15:07:38.139Z,95162.03
2022-09-14T15:10:05.230Z,95156.19
2022-09-14T15:12:31.717Z,95147.94
2022-09-14T15:14:57.895Z,95153.47
2022-09-14T15:17:24.493Z,95155.22
2022-09-14T15:19:50.282Z,95164.44
2022-09-14T15:22:16.098Z,95173.03
2022-09-14T15:24:41.889Z,95181.78
2022-09-14T15:27:07.718Z,95188.03
2022-09-14T15:29:33.622Z,95176.75
2022-09-14T15:31:59.573Z,95167.44
2022-09-14T15:34:25.368Z,95156.75
2022-09-14T15:36:52.965Z,95151.09
2022-09-14T15:39:21.331Z,95158.41
2022-09-14T15:41:47.192Z,95156.31
2022-09-14T15:44:13.067Z,95168.09
2022-09-14T15:46:39.694Z,95166.66
2022-09-14T15:49:07.825Z,95166.34
2022-09-14T15:51:33.881Z,95169.44
2022-09-14T15:54:01.064Z,95165.72
2022-09-14T15:56:27.234Z,95171.31
2022-09-14T15:58:53.704Z,95160.06
2022-09-14T16:01:19.898Z,95161.28
2022-09-14T16:03:45.869Z,95168.16
2022-09-14T16:06:13.034Z,95175.75
2022-09-14T16:08:39.950Z,95165.03
2022-09-14T16:11:07.242Z,95168.22
2022-09-14T16:13:34.313Z,95173.66
2022-09-14T16:16:12.106Z,95175.47
2022-09-14T16:18:38.734Z,95170.59
2022-09-14T16:21:06.428Z,95163.94
2022-09-14T16:23:34.942Z,95162.78
2022-09-14T16:26:14.778Z,95160.69
2022-09-14T16:28:42.578Z,95167.50
2022-09-14T16:31:20.122Z,95161.41
2022-09-14T16:33:48.925Z,95164.84
2022-09-14T16:36:17.871Z,95164.72
2022-09-14T16:38:43.853Z,95172.81
2022-09-14T16:41:11.050Z,95168.72
2022-09-14T16:43:37.106Z,95166.28
2022-09-14T16:46:08.374Z,95166.06
2022-09-14T16:48:35.687Z,95166.94
2022-09-14T16:51:02.560Z,95170.69
2022-09-14T16:53:33.000Z,95166.16
2022-09-14T16:56:04.449Z,95182.50
2022-09-14T16:58:31.412Z,95185.56
2022-09-14T17:01:06.125Z,95184.59
2022-09-14T17:03:36.224Z,95187.13
2022-09-14T17:06:07.843Z,95197.41
2022-09-14T17:08:35.046Z,95201.19
2022-09-14T17:11:03.473Z,95214.72
2022-09-14T17:13:30.466Z,95213.66
2022-09-14T17:16:01.322Z,95210.75
2022-09-14T17:18:27.373Z,95217.81
2022-09-14T17:21:02.506Z,95218.63
2022-09-14T17:23:28.715Z,95216.66
2022-09-14T17:25:55.483Z,95229.47
2022-09-14T17:28:25.275Z,95227.41
2022-09-14T17:30:52.382Z,95227.34
2022-09-14T17:33:19.284Z,95221.91
2022-09-14T17:35:47.446Z,95224.81
2022-09-14T17:38:13.463Z,95219.56
2022-09-14T17:40:39.270Z,95218.28
2022-09-14T17:43:05.026Z,95219.63
2022-09-14T17:45:30.888Z,95227.28
2022-09-14T17:47:56.672Z,95211.72
2022-09-14T17:50:22.859Z,95217.25
2022-09-14T17:52:51.583Z,95212.38
2022-09-14T17:55:17.845Z,95213.97
2022-09-14T17:57:44.504Z,95214.19
2022-09-14T18:00:11.116Z,95218.47
2022-09-14T18:02:36.894Z,95216.84
2022-09-14T18:05:03.166Z,95220.75
2022-09-14T18:07:29.901Z,95223.47
2022-09-14T18:09:56.541Z,95227.69
2022-09-14T18:12:22.599Z,95234.69
2022-09-14T18:14:48.919Z,95230.44
2022-09-14T18:17:14.935Z,95233.88
2022-09-14T18:19:41.287Z,95231.78
2022-09-14T18:22:08.050Z,95228.59
2022-09-14T18:24:34.513Z,95224.31
2022-09-14T18:27:00.720Z,95230.25
2022-09-14T18:29:29.044Z,95233.56
2022-09-14T18:31:55.322Z,95237.00
2022-09-14T18:34:21.953Z,95234.59
2022-09-14T18:36:50.382Z,95231.13
2022-09-14T18:39:16.244Z,95233.75
2022-09-14T18:41:42.940Z,95237.56
2022-09-14T18:44:08.911Z,95239.03
2022-09-14T18:46:35.922Z,95242.91
2022-09-14T18:49:02.493Z,95243.16
2022-09-14T18:51:30.310Z,95241.34
2022-09-14T18:53:58.147Z,95243.22
2022-09-14T18:56:24.254Z,95247.94
2022-09-14T18:58:50.098Z,95243.00
2022-09-14T19:01:16.120Z,95237.50
2022-09-14T19:03:42.938Z,95241.50
2022-09-14T19:06:14.521Z,95248.63
2022-09-14T19:08:41.475Z,95242.09
2022-09-14T19:11:22.769Z,95256.31
2022-09-14T19:13:53.838Z,95264.25
2022-09-14T19:16:19.937Z,95269.31
2022-09-14T19:18:47.707Z,95268.53
2022-09-14T19:21:23.367Z,95274.28
2022-09-14T19:23:55.752Z,95286.38
2022-09-14T19:26:21.549Z,95289.03
2022-09-14T19:28:47.590Z,95281.34
2022-09-14T19:31:19.413Z,95274.41
2022-09-14T19:33:45.799Z,95281.34
2022-09-14T19:36:14.974Z,95282.78
2022-09-14T19:38:43.037Z,95283.41
2022-09-14T19:41:09.173Z,95280.31
2022-09-14T19:43:35.309Z,95277.94
2022-09-14T19:46:05.755Z,95284.50
2022-09-14T19:48:32.690Z,95276.91
2022-09-14T19:50:59.889Z,95281.38
2022-09-14T19:53:26.693Z,95272.84
2022-09-14T19:55:52.509Z,95276.59
2022-09-14T19:58:18.264Z,95274.72
2022-09-14T20:00:44.103Z,95271.00
2022-09-14T20:03:09.972Z,95272.78
2022-09-14T20:05:36.250Z,95272.78
2022-09-14T20:08:02.156Z,95269.59
2022-09-14T20:10:28.148Z,95282.16
2022-09-14T20:12:54.038Z,95283.00
2022-09-14T20:15:19.832Z,95274.44
2022-09-14T20:17:45.671Z,95280.78
2022-09-14T20:20:11.732Z,95273.72
2022-09-14T20:22:37.537Z,95273.41
2022-09-14T20:25:04.524Z,95277.56
2022-09-14T20:27:30.282Z,95281.03
2022-09-14T20:29:56.045Z,95290.34
2022-09-14T20:32:21.818Z,95291.63
2022-09-14T20:34:47.568Z,95297.19
2022-09-14T20:37:13.346Z,95301.00
2022-09-14T20:39:39.119Z,95304.44
2022-09-14T20:42:05.182Z,95303.94
2022-09-14T20:44:31.030Z,95301.13
2022-09-14T20:46:56.893Z,95302.09
2022-09-14T20:49:23.169Z,95295.41
2022-09-14T20:51:51.745Z,95286.97
2022-09-14T20:54:17.830Z,95294.13
2022-09-14T20:56:45.500Z,95290.72
2022-09-14T20:59:14.017Z,95288.38
2022-09-14T21:01:42.705Z,95288.53
2022-09-14T21:04:14.847Z,95294.34
2022-09-14T21:06:43.421Z,95294.84
2022-09-14T21:09:10.504Z,95299.63
2022-09-14T21:11:37.170Z,95291.50
2022-09-14T21:14:03.272Z,95291.53
2022-09-14T21:16:41.867Z,95288.41
2022-09-14T21:19:16.298Z,95287.28
2022-09-14T21:21:42.983Z,95298.09
2022-09-14T21:24:12.484Z,95298.38
2022-09-14T21:26:42.485Z,95306.34
2022-09-14T21:29:17.515Z,95307.91
2022-09-14T21:31:44.019Z,95302.59
2022-09-14T21:34:11.098Z,95313.13
2022-09-14T21:36:48.295Z,95317.38
2022-09-14T21:39:22.621Z,95311.44
2022-09-14T21:41:52.333Z,95312.13
2022-09-14T21:44:20.515Z,95314.75
2022-09-14T21:46:46.332Z,95313.50
2022-09-14T21:49:14.528Z,95310.84
2022-09-14T21:51:41.049Z,95311.06
2022-09-14T21:54:08.854Z,95318.16
2022-09-14T21:56:37.127Z,95321.44
2022-09-14T21:59:06.146Z,95324.56
2022-09-14T22:01:32.087Z,95316.16
2022-09-14T22:03:58.104Z,95326.16
2022-09-14T22:06:26.636Z,95328.28
2022-09-14T22:08:53.168Z,95330.19
2022-09-14T22:11:23.249Z,95327.03
2022-09-14T22:13:54.089Z,95328.66
2022-09-14T22:16:20.748Z,95327.66
2022-09-14T22:18:53.314Z,95330.00
2022-09-14T22:21:20.799Z,95334.47
2022-09-14T22:23:51.554Z,95337.63
2022-09-14T22:26:19.353Z,95329.47
2022-09-14T22:28:46.856Z,95330.06
2022-09-14T22:31:13.159Z,95342.84
2022-09-14T22:33:39.030Z,95339.19
2022-09-14T22:36:05.483Z,95337.31
2022-09-14T22:38:33.673Z,95340.97
2022-09-14T22:41:02.419Z,95338.88
2022-09-14T22:43:28.787Z,95347.06
2022-09-14T22:45:54.953Z,95348.16
2022-09-14T22:48:21.913Z,95349.97
2022-09-14T22:50:51.093Z,95350.78
2022-09-14T22:53:17.643Z,95349.13
2022-09-14T22:55:44.458Z,95350.00
2022-09-14T22:58:11.676Z,95351.34
2022-09-14T23:00:38.964Z,95351.63
2022-09-14T23:03:06.234Z,95355.09
2022-09-14T23:05:32.804Z,95358.81
2022-09-14T23:07:58.619Z,95356.72
2022-09-14T23:10:24.564Z,95356.16
2022-09-14T23:12:50.318Z,95358.28
2022-09-14T23:15:16.447Z,95365.16
2022-09-14T23:17:42.418Z,95369.09
2022-09-14T23:20:09.128Z,95359.56
2022-09-14T23:22:35.588Z,95368.31
2022-09-14T23:25:01.882Z,95372.31
2022-09-14T23:27:27.669Z,95374.72
2022-09-14T23:29:53.784Z,95374.72
2022-09-14T23:32:19.977Z,95377.13
2022-09-14T23:34:47.314Z,95375.06
2022-09-14T23:37:13.433Z,95372.16
2022-09-14T23:39:40.231Z,95374.03
2022-09-14T23:42:07.267Z,95376.41
2022-09-14T23:44:33.432Z,95380.91
2022-09-14T23:46:59.385Z,95375.06
2022-09-14T23:49:25.450Z,95381.41
2022-09-14T23:51:51.177Z,95376.13
2022-09-14T23:54:17.154Z,95380.63
2022-09-14T23:56:43.147Z,95377.19
2022-09-14T23:59:13.609Z,95382.47
